sensor_id;sensor_type;location;lat;lon;timestamp;temperature;humidity
26575;DHT22;67165;50.256;10.978;2023-03-14T00:01:19;9.10;98.00
26575;DHT22;67165;50.256;10.978;2023-03-14T00:03:48;9.10;98.00
26575;DHT22;67165;50.256;10.978;2023-03-14T00:06:14;9.00;98.00
26575;DHT22;67165;50.256;10.978;2023-03-14T00:08:41;8.90;98.00
26575;DHT22;67165;50.256;10.978;2023-03-14T00:11:09;8.90;98.00
26575;DHT22;67165;50.256;10.978;2023-03-14T00:13:35;8.90;98.00
26575;DHT22;67165;50.256;10.978;2023-03-14T00:16:06;8.90;98.00
26575;DHT22;67165;50.256;10.978;2023-03-14T00:18:33;8.80;98.00
26575;DHT22;67165;50.256;10.978;2023-03-14T00:21:00;8.80;98.00
26575;DHT22;67165;50.256;10.978;2023-03-14T00:23:27;8.80;98.00
26575;DHT22;67165;50.256;10.978;2023-03-14T00:25:57;8.80;98.00
26575;DHT22;67165;50.256;10.978;2023-03-14T00:28:23;8.90;98.00
26575;DHT22;67165;50.256;10.978;2023-03-14T00:30:48;8.90;98.00
26575;DHT22;67165;50.256;10.978;2023-03-14T00:33:14;8.90;98.00
26575;DHT22;67165;50.256;10.978;2023-03-14T00:35:40;8.90;98.00
26575;DHT22;67165;50.256;10.978;2023-03-14T00:38:05;8.90;98.00
26575;DHT22;67165;50.256;10.978;2023-03-14T00:40:31;8.90;98.00
26575;DHT22;67165;50.256;10.978;2023-03-14T00:42:56;8.90;98.00
26575;DHT22;67165;50.256;10.978;2023-03-14T00:45:22;8.80;98.00
26575;DHT22;67165;50.256;10.978;2023-03-14T00:47:47;8.80;98.00
26575;DHT22;67165;50.256;10.978;2023-03-14T00:50:13;8.80;98.00
26575;DHT22;67165;50.256;10.978;2023-03-14T00:52:39;8.80;98.00
26575;DHT22;67165;50.256;10.978;2023-03-14T00:55:05;8.80;98.00
26575;DHT22;67165;50.256;10.978;2023-03-14T00:57:30;8.80;98.00
26575;DHT22;67165;50.256;10.978;2023-03-14T00:59:56;8.80;98.00
26575;DHT22;67165;50.256;10.978;2023-03-14T01:02:22;8.70;98.00
26575;DHT22;67165;50.256;10.978;2023-03-14T01:04:48;8.70;98.00
26575;DHT22;67165;50.256;10.978;2023-03-14T01:07:14;8.70;98.00
26575;DHT22;67165;50.256;10.978;2023-03-14T01:09:40;8.70;98.00
26575;DHT22;67165;50.256;10.978;2023-03-14T01:12:05;8.70;98.00
26575;DHT22;67165;50.256;10.978;2023-03-14T01:14:31;8.70;98.00
26575;DHT22;67165;50.256;10.978;2023-03-14T01:16:57;8.70;98.00
26575;DHT22;67165;50.256;10.978;2023-03-14T01:19:27;8.60;98.00
26575;DHT22;67165;50.256;10.978;2023-03-14T01:21:53;8.60;98.00
26575;DHT22;67165;50.256;10.978;2023-03-14T01:24:19;8.60;98.00
26575;DHT22;67165;50.256;10.978;2023-03-14T01:26:46;8.50;98.00
26575;DHT22;67165;50.256;10.978;2023-03-14T01:29:11;8.60;98.00
26575;DHT22;67165;50.256;10.978;2023-03-14T01:31:37;8.60;98.00
26575;DHT22;67165;50.256;10.978;2023-03-14T01:34:03;8.60;98.00
26575;DHT22;67165;50.256;10.978;2023-03-14T01:36:28;8.70;98.00
26575;DHT22;67165;50.256;10.978;2023-03-14T01:38:54;8.70;98.00
26575;DHT22;67165;50.256;10.978;2023-03-14T01:41:22;8.60;98.00
26575;DHT22;67165;50.256;10.978;2023-03-14T01:43:48;8.60;98.00
26575;DHT22;67165;50.256;10.978;2023-03-14T01:46:17;8.60;98.00
26575;DHT22;67165;50.256;10.978;2023-03-14T01:51:20;8.60;98.00
26575;DHT22;67165;50.256;10.978;2023-03-14T01:53:48;8.60;98.00
26575;DHT22;67165;50.256;10.978;2023-03-14T01:56:17;8.60;98.00
26575;DHT22;67165;50.256;10.978;2023-03-14T01:58:46;8.60;98.00
26575;DHT22;67165;50.256;10.978;2023-03-14T02:01:15;8.70;98.00
26575;DHT22;67165;50.256;10.978;2023-03-14T02:03:54;8.70;98.00
26575;DHT22;67165;50.256;10.978;2023-03-14T02:06:24;8.70;98.00
26575;DHT22;67165;50.256;10.978;2023-03-14T02:08:51;8.80;98.00
26575;DHT22;67165;50.256;10.978;2023-03-14T02:11:18;8.80;98.00
26575;DHT22;67165;50.256;10.978;2023-03-14T02:13:44;8.80;98.00
26575;DHT22;67165;50.256;10.978;2023-03-14T02:16:10;8.90;98.00
26575;DHT22;67165;50.256;10.978;2023-03-14T02:18:36;8.80;98.00
26575;DHT22;67165;50.256;10.978;2023-03-14T02:26:34;8.90;98.00
26575;DHT22;67165;50.256;10.978;2023-03-14T02:29:02;8.90;98.00
26575;DHT22;67165;50.256;10.978;2023-03-14T02:31:27;8.90;98.00
26575;DHT22;67165;50.256;10.978;2023-03-14T02:33:54;8.90;98.00
26575;DHT22;67165;50.256;10.978;2023-03-14T02:36:21;8.90;98.00
26575;DHT22;67165;50.256;10.978;2023-03-14T02:41:26;8.90;98.00
26575;DHT22;67165;50.256;10.978;2023-03-14T02:43:52;8.80;98.00
26575;DHT22;67165;50.256;10.978;2023-03-14T02:46:20;8.80;98.00
26575;DHT22;67165;50.256;10.978;2023-03-14T02:48:53;8.80;98.00
26575;DHT22;67165;50.256;10.978;2023-03-14T02:51:21;8.80;98.00
26575;DHT22;67165;50.256;10.978;2023-03-14T02:53:48;8.80;98.00
26575;DHT22;67165;50.256;10.978;2023-03-14T02:56:13;8.80;98.00
26575;DHT22;67165;50.256;10.978;2023-03-14T02:58:39;8.80;98.00
26575;DHT22;67165;50.256;10.978;2023-03-14T03:01:05;8.80;98.00
26575;DHT22;67165;50.256;10.978;2023-03-14T03:03:31;8.80;98.00
26575;DHT22;67165;50.256;10.978;2023-03-14T03:05:57;8.80;98.00
26575;DHT22;67165;50.256;10.978;2023-03-14T03:08:25;8.90;98.00
26575;DHT22;67165;50.256;10.978;2023-03-14T03:10:51;8.80;98.00
26575;DHT22;67165;50.256;10.978;2023-03-14T03:13:18;8.80;98.00
26575;DHT22;67165;50.256;10.978;2023-03-14T03:15:44;8.80;98.00
26575;DHT22;67165;50.256;10.978;2023-03-14T03:18:10;8.80;98.00
26575;DHT22;67165;50.256;10.978;2023-03-14T03:20:36;8.80;98.00
26575;DHT22;67165;50.256;10.978;2023-03-14T03:23:02;8.80;98.00
26575;DHT22;67165;50.256;10.978;2023-03-14T03:25:27;8.80;98.00
26575;DHT22;67165;50.256;10.978;2023-03-14T03:27:53;8.80;98.00
26575;DHT22;67165;50.256;10.978;2023-03-14T03:30:19;8.80;98.00
26575;DHT22;67165;50.256;10.978;2023-03-14T03:32:45;8.80;98.00
26575;DHT22;67165;50.256;10.978;2023-03-14T03:35:11;8.80;98.00
26575;DHT22;67165;50.256;10.978;2023-03-14T03:37:36;8.80;98.00
26575;DHT22;67165;50.256;10.978;2023-03-14T03:40:03;8.70;98.00
26575;DHT22;67165;50.256;10.978;2023-03-14T03:42:33;8.70;98.00
26575;DHT22;67165;50.256;10.978;2023-03-14T03:44:59;8.70;98.00
26575;DHT22;67165;50.256;10.978;2023-03-14T03:47:26;8.70;98.00
26575;DHT22;67165;50.256;10.978;2023-03-14T03:49:51;8.70;98.00
26575;DHT22;67165;50.256;10.978;2023-03-14T03:52:17;8.70;98.00
26575;DHT22;67165;50.256;10.978;2023-03-14T03:54:43;8.60;98.00
26575;DHT22;67165;50.256;10.978;2023-03-14T03:57:09;8.60;98.00
26575;DHT22;67165;50.256;10.978;2023-03-14T03:59:34;8.60;98.00
26575;DHT22;67165;50.256;10.978;2023-03-14T04:02:00;8.60;98.00
26575;DHT22;67165;50.256;10.978;2023-03-14T04:04:26;8.70;98.00
26575;DHT22;67165;50.256;10.978;2023-03-14T04:06:52;8.70;98.00
26575;DHT22;67165;50.256;10.978;2023-03-14T04:09:17;8.70;98.00
26575;DHT22;67165;50.256;10.978;2023-03-14T04:11:43;8.80;98.00
26575;DHT22;67165;50.256;10.978;2023-03-14T04:14:09;8.70;98.00
26575;DHT22;67165;50.256;10.978;2023-03-14T04:16:34;8.70;98.00
26575;DHT22;67165;50.256;10.978;2023-03-14T04:19:01;8.80;98.00
26575;DHT22;67165;50.256;10.978;2023-03-14T04:21:27;8.80;98.00
26575;DHT22;67165;50.256;10.978;2023-03-14T04:23:52;8.70;98.00
26575;DHT22;67165;50.256;10.978;2023-03-14T04:26:18;8.70;98.00
26575;DHT22;67165;50.256;10.978;2023-03-14T04:28:44;8.80;98.00
26575;DHT22;67165;50.256;10.978;2023-03-14T04:31:12;8.80;98.00
26575;DHT22;67165;50.256;10.978;2023-03-14T04:33:38;8.80;98.00
26575;DHT22;67165;50.256;10.978;2023-03-14T04:36:05;8.80;98.00
26575;DHT22;67165;50.256;10.978;2023-03-14T04:38:31;8.80;98.00
26575;DHT22;67165;50.256;10.978;2023-03-14T04:40:57;8.80;98.00
26575;DHT22;67165;50.256;10.978;2023-03-14T04:43:23;8.80;98.00
26575;DHT22;67165;50.256;10.978;2023-03-14T04:45:48;8.80;98.00
26575;DHT22;67165;50.256;10.978;2023-03-14T04:48:14;8.80;98.00
26575;DHT22;67165;50.256;10.978;2023-03-14T04:50:40;8.80;98.00
26575;DHT22;67165;50.256;10.978;2023-03-14T04:53:05;8.80;98.00
26575;DHT22;67165;50.256;10.978;2023-03-14T04:55:32;8.80;98.00
26575;DHT22;67165;50.256;10.978;2023-03-14T04:57:59;8.80;98.00
26575;DHT22;67165;50.256;10.978;2023-03-14T05:00:24;8.80;98.00
26575;DHT22;67165;50.256;10.978;2023-03-14T05:02:50;8.80;98.00
26575;DHT22;67165;50.256;10.978;2023-03-14T05:05:16;8.80;98.00
26575;DHT22;67165;50.256;10.978;2023-03-14T05:07:42;8.80;98.00
26575;DHT22;67165;50.256;10.978;2023-03-14T05:10:08;8.90;98.00
26575;DHT22;67165;50.256;10.978;2023-03-14T05:12:34;8.90;98.00
26575;DHT22;67165;50.256;10.978;2023-03-14T05:15:00;8.90;98.00
26575;DHT22;67165;50.256;10.978;2023-03-14T05:17:25;8.90;98.00
26575;DHT22;67165;50.256;10.978;2023-03-14T05:19:51;8.90;98.00
26575;DHT22;67165;50.256;10.978;2023-03-14T05:22:17;8.90;98.00
26575;DHT22;67165;50.256;10.978;2023-03-14T05:24:43;8.90;98.00
26575;DHT22;67165;50.256;10.978;2023-03-14T05:27:09;8.80;98.00
26575;DHT22;67165;50.256;10.978;2023-03-14T05:29:34;8.80;98.00
26575;DHT22;67165;50.256;10.978;2023-03-14T05:32:00;8.70;98.00
26575;DHT22;67165;50.256;10.978;2023-03-14T05:34:26;8.70;98.00
26575;DHT22;67165;50.256;10.978;2023-03-14T05:36:51;8.70;98.00
26575;DHT22;67165;50.256;10.978;2023-03-14T05:39:17;8.60;98.00
26575;DHT22;67165;50.256;10.978;2023-03-14T05:41:43;8.70;98.00
26575;DHT22;67165;50.256;10.978;2023-03-14T05:44:08;8.70;98.00
26575;DHT22;67165;50.256;10.978;2023-03-14T05:46:34;8.60;98.00
26575;DHT22;67165;50.256;10.978;2023-03-14T05:49:00;8.60;98.00
26575;DHT22;67165;50.256;10.978;2023-03-14T05:51:26;8.60;98.00
26575;DHT22;67165;50.256;10.978;2023-03-14T05:53:51;8.60;98.00
26575;DHT22;67165;50.256;10.978;2023-03-14T05:56:17;8.60;98.00
26575;DHT22;67165;50.256;10.978;2023-03-14T05:58:43;8.60;98.00
26575;DHT22;67165;50.256;10.978;2023-03-14T06:01:08;8.70;98.00
26575;DHT22;67165;50.256;10.978;2023-03-14T06:03:35;8.70;98.00
26575;DHT22;67165;50.256;10.978;2023-03-14T06:06:00;8.70;98.00
26575;DHT22;67165;50.256;10.978;2023-03-14T06:08:26;8.70;98.00
26575;DHT22;67165;50.256;10.978;2023-03-14T06:10:52;8.80;98.00
26575;DHT22;67165;50.256;10.978;2023-03-14T06:13:18;8.80;98.00
26575;DHT22;67165;50.256;10.978;2023-03-14T06:15:44;8.80;98.00
26575;DHT22;67165;50.256;10.978;2023-03-14T06:18:09;8.80;98.00
26575;DHT22;67165;50.256;10.978;2023-03-14T06:20:38;8.80;98.00
26575;DHT22;67165;50.256;10.978;2023-03-14T06:23:05;8.90;98.00
26575;DHT22;67165;50.256;10.978;2023-03-14T06:25:32;8.90;98.00
26575;DHT22;67165;50.256;10.978;2023-03-14T06:27:57;8.90;98.00
26575;DHT22;67165;50.256;10.978;2023-03-14T06:30:23;8.90;98.00
26575;DHT22;67165;50.256;10.978;2023-03-14T06:32:49;9.00;98.00
26575;DHT22;67165;50.256;10.978;2023-03-14T06:35:14;9.00;98.00
26575;DHT22;67165;50.256;10.978;2023-03-14T06:37:40;9.00;98.00
26575;DHT22;67165;50.256;10.978;2023-03-14T06:40:06;9.10;98.00
26575;DHT22;67165;50.256;10.978;2023-03-14T06:42:33;9.10;98.00
26575;DHT22;67165;50.256;10.978;2023-03-14T06:44:58;9.20;98.00
26575;DHT22;67165;50.256;10.978;2023-03-14T06:47:24;9.20;98.00
26575;DHT22;67165;50.256;10.978;2023-03-14T06:49:50;9.20;98.00
26575;DHT22;67165;50.256;10.978;2023-03-14T06:52:15;9.20;98.00
26575;DHT22;67165;50.256;10.978;2023-03-14T06:54:41;9.20;98.00
26575;DHT22;67165;50.256;10.978;2023-03-14T06:57:07;9.30;98.00
26575;DHT22;67165;50.256;10.978;2023-03-14T06:59:32;9.30;98.00
26575;DHT22;67165;50.256;10.978;2023-03-14T07:01:58;9.30;98.00
26575;DHT22;67165;50.256;10.978;2023-03-14T07:04:23;9.30;98.00
26575;DHT22;67165;50.256;10.978;2023-03-14T07:06:51;9.40;98.00
26575;DHT22;67165;50.256;10.978;2023-03-14T07:09:17;9.30;98.00
26575;DHT22;67165;50.256;10.978;2023-03-14T07:11:43;9.30;98.00
26575;DHT22;67165;50.256;10.978;2023-03-14T07:14:08;9.30;98.00
26575;DHT22;67165;50.256;10.978;2023-03-14T07:16:34;9.30;98.00
26575;DHT22;67165;50.256;10.978;2023-03-14T07:19:01;9.20;98.00
26575;DHT22;67165;50.256;10.978;2023-03-14T07:21:27;9.20;98.00
26575;DHT22;67165;50.256;10.978;2023-03-14T07:23:53;9.20;98.00
26575;DHT22;67165;50.256;10.978;2023-03-14T07:26:18;9.20;98.00
26575;DHT22;67165;50.256;10.978;2023-03-14T07:28:44;9.30;98.00
26575;DHT22;67165;50.256;10.978;2023-03-14T07:31:10;9.40;98.00
26575;DHT22;67165;50.256;10.978;2023-03-14T07:33:35;9.50;98.00
26575;DHT22;67165;50.256;10.978;2023-03-14T07:36:02;9.60;98.00
26575;DHT22;67165;50.256;10.978;2023-03-14T07:38:27;9.70;98.00
26575;DHT22;67165;50.256;10.978;2023-03-14T07:41:00;9.70;98.00
26575;DHT22;67165;50.256;10.978;2023-03-14T07:43:27;9.70;98.00
26575;DHT22;67165;50.256;10.978;2023-03-14T07:45:53;9.70;98.00
26575;DHT22;67165;50.256;10.978;2023-03-14T07:48:19;9.70;98.00
26575;DHT22;67165;50.256;10.978;2023-03-14T07:50:48;9.70;98.00
26575;DHT22;67165;50.256;10.978;2023-03-14T07:53:14;9.80;98.00
26575;DHT22;67165;50.256;10.978;2023-03-14T07:55:40;9.90;98.00
26575;DHT22;67165;50.256;10.978;2023-03-14T07:58:05;10.00;98.00
26575;DHT22;67165;50.256;10.978;2023-03-14T08:00:31;10.10;98.00
26575;DHT22;67165;50.256;10.978;2023-03-14T08:02:58;10.10;98.00
26575;DHT22;67165;50.256;10.978;2023-03-14T08:05:23;10.10;98.00
26575;DHT22;67165;50.256;10.978;2023-03-14T08:07:49;10.10;98.00
26575;DHT22;67165;50.256;10.978;2023-03-14T08:10:15;10.20;98.00
26575;DHT22;67165;50.256;10.978;2023-03-14T08:12:51;10.20;98.00
26575;DHT22;67165;50.256;10.978;2023-03-14T08:15:16;10.30;98.00
26575;DHT22;67165;50.256;10.978;2023-03-14T08:17:42;10.40;98.00
26575;DHT22;67165;50.256;10.978;2023-03-14T08:20:08;10.50;98.00
26575;DHT22;67165;50.256;10.978;2023-03-14T08:22:36;10.50;98.00
26575;DHT22;67165;50.256;10.978;2023-03-14T08:25:01;10.50;98.00
26575;DHT22;67165;50.256;10.978;2023-03-14T08:27:27;10.60;98.00
26575;DHT22;67165;50.256;10.978;2023-03-14T08:29:53;10.60;98.00
26575;DHT22;67165;50.256;10.978;2023-03-14T08:32:19;10.70;98.00
26575;DHT22;67165;50.256;10.978;2023-03-14T08:34:45;10.70;98.00
26575;DHT22;67165;50.256;10.978;2023-03-14T08:37:11;10.70;98.00
26575;DHT22;67165;50.256;10.978;2023-03-14T08:39:37;10.70;98.00
26575;DHT22;67165;50.256;10.978;2023-03-14T08:42:03;10.60;98.00
26575;DHT22;67165;50.256;10.978;2023-03-14T08:44:28;10.50;98.00
26575;DHT22;67165;50.256;10.978;2023-03-14T08:46:55;10.50;98.00
26575;DHT22;67165;50.256;10.978;2023-03-14T08:49:20;10.50;98.00
26575;DHT22;67165;50.256;10.978;2023-03-14T08:51:46;10.40;98.00
26575;DHT22;67165;50.256;10.978;2023-03-14T08:54:12;10.50;98.00
26575;DHT22;67165;50.256;10.978;2023-03-14T08:56:38;10.50;98.00
26575;DHT22;67165;50.256;10.978;2023-03-14T08:59:04;10.60;98.00
26575;DHT22;67165;50.256;10.978;2023-03-14T09:01:30;10.60;98.00
26575;DHT22;67165;50.256;10.978;2023-03-14T09:03:56;10.70;98.00
26575;DHT22;67165;50.256;10.978;2023-03-14T09:06:22;10.60;98.00
26575;DHT22;67165;50.256;10.978;2023-03-14T09:08:47;10.60;98.00
26575;DHT22;67165;50.256;10.978;2023-03-14T09:11:13;10.70;98.00
26575;DHT22;67165;50.256;10.978;2023-03-14T09:13:39;10.70;98.00
26575;DHT22;67165;50.256;10.978;2023-03-14T09:16:06;10.60;98.00
26575;DHT22;67165;50.256;10.978;2023-03-14T09:18:31;10.50;98.00
26575;DHT22;67165;50.256;10.978;2023-03-14T09:20:57;10.50;98.00
26575;DHT22;67165;50.256;10.978;2023-03-14T09:23:23;10.40;98.00
26575;DHT22;67165;50.256;10.978;2023-03-14T09:25:49;10.40;98.00
26575;DHT22;67165;50.256;10.978;2023-03-14T09:28:14;10.30;98.00
26575;DHT22;67165;50.256;10.978;2023-03-14T09:30:40;10.30;98.00
26575;DHT22;67165;50.256;10.978;2023-03-14T09:33:05;10.30;98.00
26575;DHT22;67165;50.256;10.978;2023-03-14T09:35:33;10.30;98.00
26575;DHT22;67165;50.256;10.978;2023-03-14T09:37:59;10.30;98.00
26575;DHT22;67165;50.256;10.978;2023-03-14T09:40:32;10.40;98.00
26575;DHT22;67165;50.256;10.978;2023-03-14T09:42:59;10.50;98.00
26575;DHT22;67165;50.256;10.978;2023-03-14T09:45:44;10.50;98.00
26575;DHT22;67165;50.256;10.978;2023-03-14T09:48:35;10.60;98.00
26575;DHT22;67165;50.256;10.978;2023-03-14T09:51:04;10.70;98.00
26575;DHT22;67165;50.256;10.978;2023-03-14T09:53:40;10.70;98.00
26575;DHT22;67165;50.256;10.978;2023-03-14T09:56:31;10.80;98.00
26575;DHT22;67165;50.256;10.978;2023-03-14T09:59:03;10.80;98.00
26575;DHT22;67165;50.256;10.978;2023-03-14T10:01:31;10.90;98.00
26575;DHT22;67165;50.256;10.978;2023-03-14T10:04:00;10.80;98.00
26575;DHT22;67165;50.256;10.978;2023-03-14T10:06:29;10.80;98.00
26575;DHT22;67165;50.256;10.978;2023-03-14T10:08:56;10.90;98.00
26575;DHT22;67165;50.256;10.978;2023-03-14T10:11:25;11.00;98.00
26575;DHT22;67165;50.256;10.978;2023-03-14T10:14:09;11.10;98.00
26575;DHT22;67165;50.256;10.978;2023-03-14T10:16:42;11.10;98.00
26575;DHT22;67165;50.256;10.978;2023-03-14T10:19:14;11.30;98.00
26575;DHT22;67165;50.256;10.978;2023-03-14T10:21:44;11.40;98.00
26575;DHT22;67165;50.256;10.978;2023-03-14T10:24:22;11.50;98.00
26575;DHT22;67165;50.256;10.978;2023-03-14T10:29:26;11.50;98.00
26575;DHT22;67165;50.256;10.978;2023-03-14T10:32:01;11.60;98.00
26575;DHT22;67165;50.256;10.978;2023-03-14T10:34:33;11.60;98.00
26575;DHT22;67165;50.256;10.978;2023-03-14T10:37:26;11.80;98.00
26575;DHT22;67165;50.256;10.978;2023-03-14T10:40:02;11.90;98.00
26575;DHT22;67165;50.256;10.978;2023-03-14T10:42:33;12.00;98.00
26575;DHT22;67165;50.256;10.978;2023-03-14T10:45:04;12.00;98.00
26575;DHT22;67165;50.256;10.978;2023-03-14T10:47:33;12.00;98.00
26575;DHT22;67165;50.256;10.978;2023-03-14T10:50:28;11.90;98.00
26575;DHT22;67165;50.256;10.978;2023-03-14T10:52:55;11.80;98.00
26575;DHT22;67165;50.256;10.978;2023-03-14T10:55:24;11.80;98.00
26575;DHT22;67165;50.256;10.978;2023-03-14T10:57:50;11.80;98.00
26575;DHT22;67165;50.256;10.978;2023-03-14T11:00:19;11.80;98.00
26575;DHT22;67165;50.256;10.978;2023-03-14T11:10:40;12.00;98.00
26575;DHT22;67165;50.256;10.978;2023-03-14T11:21:37;12.50;98.00
26575;DHT22;67165;50.256;10.978;2023-03-14T11:29:58;13.20;98.00
26575;DHT22;67165;50.256;10.978;2023-03-14T11:33:13;13.20;98.00
26575;DHT22;67165;50.256;10.978;2023-03-14T11:35:34;13.40;98.00
26575;DHT22;67165;50.256;10.978;2023-03-14T11:40:57;13.40;98.00
26575;DHT22;67165;50.256;10.978;2023-03-14T11:43:35;13.40;98.00
26575;DHT22;67165;50.256;10.978;2023-03-14T11:46:25;13.30;98.00
26575;DHT22;67165;50.256;10.978;2023-03-14T11:49:19;13.10;98.00
26575;DHT22;67165;50.256;10.978;2023-03-14T11:51:51;12.90;98.00
26575;DHT22;67165;50.256;10.978;2023-03-14T11:54:35;12.80;98.00
26575;DHT22;67165;50.256;10.978;2023-03-14T11:57:17;12.70;98.00
26575;DHT22;67165;50.256;10.978;2023-03-14T12:03:00;12.50;98.00
26575;DHT22;67165;50.256;10.978;2023-03-14T12:10:59;12.80;98.00
26575;DHT22;67165;50.256;10.978;2023-03-14T12:13:51;13.00;98.00
26575;DHT22;67165;50.256;10.978;2023-03-14T12:18:49;13.10;98.00
26575;DHT22;67165;50.256;10.978;2023-03-14T12:21:16;13.10;98.00
26575;DHT22;67165;50.256;10.978;2023-03-14T12:23:51;13.20;98.00
26575;DHT22;67165;50.256;10.978;2023-03-14T12:26:25;13.40;98.00
26575;DHT22;67165;50.256;10.978;2023-03-14T12:29:11;13.50;98.00
26575;DHT22;67165;50.256;10.978;2023-03-14T12:31:45;13.40;98.00
26575;DHT22;67165;50.256;10.978;2023-03-14T12:39:47;12.60;98.00
26575;DHT22;67165;50.256;10.978;2023-03-14T12:47:45;12.20;98.00
26575;DHT22;67165;50.256;10.978;2023-03-14T12:50:18;12.10;98.00
26575;DHT22;67165;50.256;10.978;2023-03-14T12:55:33;12.00;98.00
26575;DHT22;67165;50.256;10.978;2023-03-14T12:58:18;12.00;98.00
26575;DHT22;67165;50.256;10.978;2023-03-14T13:00:57;11.80;98.00
26575;DHT22;67165;50.256;10.978;2023-03-14T13:03:36;11.60;98.00
26575;DHT22;67165;50.256;10.978;2023-03-14T13:06:03;11.50;98.00
26575;DHT22;67165;50.256;10.978;2023-03-14T13:08:42;11.30;98.00
26575;DHT22;67165;50.256;10.978;2023-03-14T13:11:21;11.20;98.00
26575;DHT22;67165;50.256;10.978;2023-03-14T13:13:52;11.20;98.00
26575;DHT22;67165;50.256;10.978;2023-03-14T13:16:21;11.20;98.00
26575;DHT22;67165;50.256;10.978;2023-03-14T13:19:00;11.20;98.00
26575;DHT22;67165;50.256;10.978;2023-03-14T13:21:28;11.20;98.00
26575;DHT22;67165;50.256;10.978;2023-03-14T13:24:00;11.10;98.00
26575;DHT22;67165;50.256;10.978;2023-03-14T13:26:38;10.90;98.00
26575;DHT22;67165;50.256;10.978;2023-03-14T13:31:52;10.90;98.00
26575;DHT22;67165;50.256;10.978;2023-03-14T13:34:18;10.80;98.00
26575;DHT22;67165;50.256;10.978;2023-03-14T13:36:44;10.80;98.00
26575;DHT22;67165;50.256;10.978;2023-03-14T13:39:13;10.70;98.00
26575;DHT22;67165;50.256;10.978;2023-03-14T13:41:40;10.60;98.00
26575;DHT22;67165;50.256;10.978;2023-03-14T13:44:08;10.50;98.00
26575;DHT22;67165;50.256;10.978;2023-03-14T13:46:38;10.50;98.00
26575;DHT22;67165;50.256;10.978;2023-03-14T13:49:11;10.60;98.00
26575;DHT22;67165;50.256;10.978;2023-03-14T13:51:39;10.50;98.00
26575;DHT22;67165;50.256;10.978;2023-03-14T13:54:14;10.40;98.00
26575;DHT22;67165;50.256;10.978;2023-03-14T13:56:40;10.40;98.00
26575;DHT22;67165;50.256;10.978;2023-03-14T13:59:28;10.40;98.00
26575;DHT22;67165;50.256;10.978;2023-03-14T14:01:54;10.40;98.00
26575;DHT22;67165;50.256;10.978;2023-03-14T14:04:23;10.30;98.00
26575;DHT22;67165;50.256;10.978;2023-03-14T14:06:59;10.30;98.00
26575;DHT22;67165;50.256;10.978;2023-03-14T14:09:38;10.20;98.00
26575;DHT22;67165;50.256;10.978;2023-03-14T14:12:07;10.10;98.00
26575;DHT22;67165;50.256;10.978;2023-03-14T14:14:37;10.10;98.00
26575;DHT22;67165;50.256;10.978;2023-03-14T14:17:07;10.00;98.00
26575;DHT22;67165;50.256;10.978;2023-03-14T14:19:34;10.00;98.00
26575;DHT22;67165;50.256;10.978;2023-03-14T14:22:01;10.00;98.00
26575;DHT22;67165;50.256;10.978;2023-03-14T14:24:32;10.00;98.00
26575;DHT22;67165;50.256;10.978;2023-03-14T14:27:24;10.00;98.00
26575;DHT22;67165;50.256;10.978;2023-03-14T14:30:04;10.10;98.00
26575;DHT22;67165;50.256;10.978;2023-03-14T14:32:40;10.10;98.00
26575;DHT22;67165;50.256;10.978;2023-03-14T14:35:07;10.00;98.00
26575;DHT22;67165;50.256;10.978;2023-03-14T14:37:35;9.90;98.00
26575;DHT22;67165;50.256;10.978;2023-03-14T14:40:24;9.70;98.00
26575;DHT22;67165;50.256;10.978;2023-03-14T14:42:50;9.60;98.00
26575;DHT22;67165;50.256;10.978;2023-03-14T14:45:21;9.60;98.00
26575;DHT22;67165;50.256;10.978;2023-03-14T14:47:53;9.60;98.00
26575;DHT22;67165;50.256;10.978;2023-03-14T14:50:29;9.40;98.00
26575;DHT22;67165;50.256;10.978;2023-03-14T14:53:00;9.40;98.00
26575;DHT22;67165;50.256;10.978;2023-03-14T14:55:32;9.40;98.00
26575;DHT22;67165;50.256;10.978;2023-03-14T14:58:18;9.40;98.00
26575;DHT22;67165;50.256;10.978;2023-03-14T15:01:14;9.30;98.00
26575;DHT22;67165;50.256;10.978;2023-03-14T15:03:37;9.20;98.00
26575;DHT22;67165;50.256;10.978;2023-03-14T15:06:04;9.20;98.00
26575;DHT22;67165;50.256;10.978;2023-03-14T15:08:30;9.10;98.00
26575;DHT22;67165;50.256;10.978;2023-03-14T15:10:56;9.10;98.00
26575;DHT22;67165;50.256;10.978;2023-03-14T15:13:23;9.10;98.00
26575;DHT22;67165;50.256;10.978;2023-03-14T15:15:50;9.00;98.00
26575;DHT22;67165;50.256;10.978;2023-03-14T15:18:23;9.00;98.00
26575;DHT22;67165;50.256;10.978;2023-03-14T15:20:49;9.10;98.00
26575;DHT22;67165;50.256;10.978;2023-03-14T15:23:17;9.00;98.00
26575;DHT22;67165;50.256;10.978;2023-03-14T15:25:43;9.10;98.00
26575;DHT22;67165;50.256;10.978;2023-03-14T15:28:25;8.90;98.00
26575;DHT22;67165;50.256;10.978;2023-03-14T15:30:53;8.90;98.00
26575;DHT22;67165;50.256;10.978;2023-03-14T15:33:20;8.90;98.00
26575;DHT22;67165;50.256;10.978;2023-03-14T15:35:47;9.00;98.00
26575;DHT22;67165;50.256;10.978;2023-03-14T15:38:15;9.00;98.00
26575;DHT22;67165;50.256;10.978;2023-03-14T15:40:42;8.90;98.00
26575;DHT22;67165;50.256;10.978;2023-03-14T15:43:08;8.90;98.00
26575;DHT22;67165;50.256;10.978;2023-03-14T15:45:34;8.90;98.00
26575;DHT22;67165;50.256;10.978;2023-03-14T15:48:00;8.80;98.00
26575;DHT22;67165;50.256;10.978;2023-03-14T15:50:26;8.80;98.00
26575;DHT22;67165;50.256;10.978;2023-03-14T15:52:52;8.70;98.00
26575;DHT22;67165;50.256;10.978;2023-03-14T15:55:18;8.60;98.00
26575;DHT22;67165;50.256;10.978;2023-03-14T15:57:44;8.60;98.00
26575;DHT22;67165;50.256;10.978;2023-03-14T16:00:16;8.50;98.00
26575;DHT22;67165;50.256;10.978;2023-03-14T16:02:50;8.00;98.00
26575;DHT22;67165;50.256;10.978;2023-03-14T16:05:16;7.50;98.00
26575;DHT22;67165;50.256;10.978;2023-03-14T16:07:44;7.10;98.00
26575;DHT22;67165;50.256;10.978;2023-03-14T16:10:11;6.90;98.00
26575;DHT22;67165;50.256;10.978;2023-03-14T16:12:37;6.80;98.00
26575;DHT22;67165;50.256;10.978;2023-03-14T16:15:03;6.80;98.00
26575;DHT22;67165;50.256;10.978;2023-03-14T16:17:29;6.70;98.00
26575;DHT22;67165;50.256;10.978;2023-03-14T16:19:55;6.70;98.00
26575;DHT22;67165;50.256;10.978;2023-03-14T16:22:21;6.70;98.00
26575;DHT22;67165;50.256;10.978;2023-03-14T16:24:46;6.80;98.00
26575;DHT22;67165;50.256;10.978;2023-03-14T16:27:12;6.80;98.00
26575;DHT22;67165;50.256;10.978;2023-03-14T16:29:37;6.80;98.00
26575;DHT22;67165;50.256;10.978;2023-03-14T16:32:03;6.90;98.00
26575;DHT22;67165;50.256;10.978;2023-03-14T16:34:29;6.80;98.00
26575;DHT22;67165;50.256;10.978;2023-03-14T16:36:56;6.70;98.00
26575;DHT22;67165;50.256;10.978;2023-03-14T16:39:21;6.70;98.00